Time;durP1;ratioP1;P1;durP2;ratioP2;P2;SDS_P1;SDS_P2;PMS_P1;PMS_P2;Temp;Humidity;BMP_temperature;BMP_pressure;BME280_temperature;BME280_humidity;BME280_pressure;Samples;Min_cycle;Max_cycle;Signal;HPM_P1;HPM_P2
2023/10/25 00:01:05;;;;;;;2.43;2.13;;;;;;;22.21;64.37;96372.88;5011265;28;20645;-23
2023/10/25 00:03:32;;;;;;;2.93;2.30;;;;;;;22.20;64.36;96372.00;5012554;28;20212;-24
2023/10/25 00:05:59;;;;;;;2.47;2.23;;;;;;;22.21;64.28;96372.88;5012023;28;20206;-23
2023/10/25 00:08:26;;;;;;;3.20;2.50;;;;;;;22.20;64.31;96372.00;5016581;28;20221;-25
2023/10/25 00:11:06;;;;;;;2.00;1.90;;;;;;;22.20;64.26;96374.56;5018022;28;20707;-22
2023/10/25 00:13:33;;;;;;;2.23;2.10;;;;;;;22.20;64.17;96377.13;5016152;28;20235;-23
2023/10/25 00:16:00;;;;;;;2.00;1.90;;;;;;;22.22;64.25;96384.81;5021828;28;20349;-23
2023/10/25 00:18:27;;;;;;;2.27;2.07;;;;;;;22.21;64.11;96388.22;5016760;28;20232;-22
2023/10/25 00:20:53;;;;;;;2.47;2.07;;;;;;;22.22;64.26;96395.06;5016738;28;20233;-23
2023/10/25 00:23:20;;;;;;;2.27;2.10;;;;;;;22.21;64.24;96390.78;5015127;28;20705;-23
2023/10/25 00:25:47;;;;;;;2.20;2.00;;;;;;;22.21;64.18;96396.78;5014981;28;20264;-23
2023/10/25 00:28:14;;;;;;;1.93;1.83;;;;;;;22.20;64.46;96397.59;5022341;28;20248;-25
2023/10/25 00:30:41;;;;;;;3.60;1.97;;;;;;;22.21;64.41;96395.91;5020617;28;20606;-23
2023/10/25 00:33:08;;;;;;;2.50;2.30;;;;;;;22.21;64.39;96396.78;5015037;28;20202;-23
2023/10/25 00:35:34;;;;;;;2.30;2.10;;;;;;;22.21;64.60;96395.91;5017169;28;20210;-23
2023/10/25 00:38:01;;;;;;;2.20;2.00;;;;;;;22.19;64.62;96393.34;5020905;28;20217;-23
2023/10/25 00:40:27;;;;;;;2.50;2.30;;;;;;;22.20;64.44;96401.88;5023059;28;20229;-23
2023/10/25 00:43:12;;;;;;;2.20;2.00;;;;;;;22.20;64.35;96407.84;5016199;28;20222;-23
2023/10/25 00:45:39;;;;;;;2.07;1.87;;;;;;;22.04;64.29;96392.31;5016324;28;20422;-23
2023/10/25 00:48:06;;;;;;;2.10;2.00;;;;;;;22.21;64.34;96418.94;4997539;28;20288;-23
2023/10/25 00:50:33;;;;;;;2.40;1.90;;;;;;;22.21;64.28;96418.94;5014139;28;20202;-23
2023/10/25 00:52:59;;;;;;;2.20;2.00;;;;;;;22.21;64.31;96424.94;5014166;28;20202;-24
2023/10/25 00:55:26;;;;;;;2.10;1.90;;;;;;;22.15;64.16;96412.06;5018041;28;20202;-23
2023/10/25 00:57:53;;;;;;;3.03;2.03;;;;;;;22.20;64.20;96414.69;5013401;28;20218;-23
2023/10/25 01:00:19;;;;;;;2.40;2.20;;;;;;;22.15;64.32;96419.75;5019170;28;20603;-23
2023/10/25 01:02:46;;;;;;;2.60;1.97;;;;;;;22.21;64.24;96426.63;5030661;28;20767;-23
2023/10/25 01:05:15;;;;;;;2.07;1.80;;;;;;;22.20;64.44;96415.50;5017272;28;20198;-23
2023/10/25 01:07:41;;;;;;;2.27;2.10;;;;;;;22.19;64.26;96416.38;5019690;28;20260;-23
2023/10/25 01:10:08;;;;;;;2.43;2.03;;;;;;;22.20;64.08;96405.28;5013637;28;20257;-22
2023/10/25 01:12:35;;;;;;;1.97;1.87;;;;;;;22.20;64.29;96394.19;5015051;28;20291;-24
2023/10/25 01:15:02;;;;;;;2.37;2.17;;;;;;;22.19;64.28;96393.34;5015167;28;20206;-23
2023/10/25 01:17:29;;;;;;;2.10;2.00;;;;;;;22.19;64.44;96397.59;5014501;28;20403;-25
2023/10/25 01:19:56;;;;;;;2.10;1.90;;;;;;;22.20;64.36;96396.75;5014500;28;20221;-23
2023/10/25 01:22:25;;;;;;;2.00;1.90;;;;;;;22.19;64.44;96395.91;5014513;28;20221;-24
2023/10/25 01:24:52;;;;;;;2.17;2.00;;;;;;;22.18;64.54;96401.88;5018104;28;20263;-23
2023/10/25 01:27:18;;;;;;;2.20;2.00;;;;;;;22.19;64.52;96406.13;5021504;28;20195;-23
2023/10/25 01:29:45;;;;;;;2.07;1.90;;;;;;;22.19;64.38;96401.00;5019494;28;20197;-23
2023/10/25 01:32:12;;;;;;;2.13;1.93;;;;;;;22.20;64.29;96399.31;5014368;28;20218;-25
2023/10/25 01:34:38;;;;;;;1.90;1.80;;;;;;;22.19;64.33;96392.47;5014499;28;20253;-25
2023/10/25 01:37:05;;;;;;;2.10;1.90;;;;;;;22.19;64.41;96389.91;5013953;28;20454;-23
2023/10/25 01:39:31;;;;;;;2.20;2.00;;;;;;;22.18;64.40;96380.53;5014460;28;20214;-23
2023/10/25 01:41:58;;;;;;;1.90;1.80;;;;;;;22.18;64.25;96391.63;5020698;28;20229;-23
2023/10/25 01:44:24;;;;;;;2.20;1.93;;;;;;;22.18;64.40;96388.19;5013994;28;20202;-23
2023/10/25 01:46:51;;;;;;;2.10;1.90;;;;;;;22.19;64.33;96388.22;5013716;28;20198;-23
2023/10/25 01:49:18;;;;;;;1.80;1.70;;;;;;;22.18;64.42;96383.09;5020393;28;20206;-23
2023/10/25 01:51:44;;;;;;;1.93;1.83;;;;;;;22.18;64.55;96394.19;5016595;28;20627;-25
2023/10/25 01:54:11;;;;;;;2.00;1.90;;;;;;;22.19;64.49;96385.66;5019719;28;20681;-22
2023/10/25 01:56:38;;;;;;;1.97;1.83;;;;;;;22.18;64.67;96393.31;5013848;28;20202;-22
2023/10/25 01:59:04;;;;;;;2.17;2.00;;;;;;;22.19;64.64;96395.03;5017707;28;20198;-23
2023/10/25 02:01:31;;;;;;;2.33;2.13;;;;;;;22.18;64.76;96401.88;5020054;28;20230;-23
2023/10/25 02:03:58;;;;;;;2.23;2.03;;;;;;;22.17;64.63;96395.00;5016975;28;20197;-23
2023/10/25 02:06:24;;;;;;;1.73;1.63;;;;;;;22.18;64.61;96398.44;5013657;28;20283;-23
2023/10/25 02:08:51;;;;;;;2.00;1.83;;;;;;;22.17;64.58;96391.63;5015776;28;20235;-23
2023/10/25 02:11:20;;;;;;;3.83;1.97;;;;;;;22.18;64.51;96386.50;5018981;28;20221;-23
2023/10/25 02:13:47;;;;;;;2.20;1.87;;;;;;;22.18;64.64;96376.28;5013315;28;20202;-24
2023/10/25 02:16:14;;;;;;;3.03;1.97;;;;;;;22.18;64.64;96372.84;5017675;28;20206;-23
2023/10/25 02:18:41;;;;;;;2.17;1.97;;;;;;;22.18;64.44;96370.28;5013105;28;20634;-23
2023/10/25 02:21:09;;;;;;;2.07;1.83;;;;;;;22.19;64.39;96369.44;5016370;28;20257;-23
2023/10/25 02:23:36;;;;;;;4.47;1.70;;;;;;;22.18;64.38;96375.41;5012088;28;20634;-23
2023/10/25 02:26:03;;;;;;;16.20;1.87;;;;;;;22.18;64.36;96373.72;5013153;28;20204;-23
2023/10/25 02:28:29;;;;;;;3.70;1.77;;;;;;;22.19;64.56;96372.00;5018430;28;20206;-23
2023/10/25 02:30:56;;;;;;;2.83;1.80;;;;;;;22.18;64.37;96375.41;5014715;28;20225;-23
2023/10/25 02:33:23;;;;;;;1.60;1.50;;;;;;;22.19;64.70;96369.44;5018039;28;20202;-24
2023/10/25 02:35:49;;;;;;;1.73;1.63;;;;;;;22.19;64.52;96377.13;5019370;28;20233;-25
2023/10/25 02:38:16;;;;;;;1.80;1.70;;;;;;;22.18;64.65;96365.19;5015053;28;20260;-23
2023/10/25 02:40:42;;;;;;;1.90;1.77;;;;;;;22.18;64.39;96373.72;5012841;28;20601;-23
2023/10/25 02:43:09;;;;;;;4.63;2.20;;;;;;;22.19;64.56;96377.13;5016658;28;20193;-23
2023/10/25 02:45:36;;;;;;;1.90;1.80;;;;;;;22.18;64.51;96375.41;5018388;28;20203;-23
2023/10/25 02:48:02;;;;;;;2.23;2.03;;;;;;;22.18;64.54;96381.41;5014797;28;20567;-22
2023/10/25 02:50:29;;;;;;;6.37;1.70;;;;;;;22.18;64.58;96383.94;5016586;28;20198;-23
2023/10/25 02:52:58;;;;;;;1.80;1.70;;;;;;;22.19;64.60;96380.53;5021081;28;20218;-24
2023/10/25 02:55:25;;;;;;;3.53;1.60;;;;;;;22.19;64.46;96377.97;5012645;28;20252;-23
2023/10/25 02:57:51;;;;;;;1.80;1.70;;;;;;;22.19;64.40;96375.41;5016756;28;20206;-23
2023/10/25 03:00:18;;;;;;;2.57;2.10;;;;;;;22.19;64.48;96377.13;5017077;28;20305;-23
2023/10/25 03:02:45;;;;;;;2.13;1.73;;;;;;;21.99;64.32;96341.13;5011750;28;20230;-23
2023/10/25 03:05:12;;;;;;;2.30;2.10;;;;;;;22.19;64.40;96375.41;5007691;28;20208;-23
2023/10/25 03:07:38;;;;;;;1.97;1.80;;;;;;;22.20;64.35;96366.88;5007163;28;20213;-23
2023/10/25 03:10:05;;;;;;;1.77;1.67;;;;;;;22.20;64.45;96378.84;5007127;28;20249;-23
2023/10/25 03:12:32;;;;;;;1.90;1.80;;;;;;;22.19;64.39;96382.22;5011437;28;20218;-23
2023/10/25 03:15:00;;;;;;;1.90;1.80;;;;;;;22.19;64.55;96375.41;5011369;28;20209;-23
2023/10/25 03:17:27;;;;;;;1.90;1.80;;;;;;;22.19;64.66;96379.66;5010049;28;20201;-23
2023/10/25 03:19:54;;;;;;;3.53;1.90;;;;;;;22.19;64.83;96382.22;5010355;28;20735;-25
2023/10/25 03:22:21;;;;;;;2.40;1.80;;;;;;;22.19;64.75;96384.78;5011718;28;20793;-23
2023/10/25 03:24:47;;;;;;;7.00;1.60;;;;;;;22.20;64.61;96391.66;5013701;28;20218;-23
2023/10/25 03:27:14;;;;;;;2.20;2.00;;;;;;;22.19;64.54;96380.53;5011738;28;20289;-23
2023/10/25 03:29:41;;;;;;;2.13;1.93;;;;;;;22.20;64.52;96386.53;5012304;28;20195;-23
2023/10/25 03:32:08;;;;;;;1.97;1.83;;;;;;;22.22;64.59;96387.38;5011402;28;20234;-23
2023/10/25 03:34:34;;;;;;;1.80;1.70;;;;;;;22.22;64.59;96385.69;5012136;28;20298;-23
2023/10/25 03:37:01;;;;;;;1.63;1.53;;;;;;;22.23;64.47;96389.09;5012014;28;20206;-22
2023/10/25 03:39:27;;;;;;;1.90;1.80;;;;;;;22.23;64.33;96396.78;5011921;28;20211;-23
2023/10/25 03:41:54;;;;;;;1.77;1.67;;;;;;;22.18;64.25;96383.94;5010960;28;20642;-23
2023/10/25 03:44:20;;;;;;;1.73;1.63;;;;;;;22.23;64.37;96389.09;5011621;28;20198;-23
2023/10/25 03:46:47;;;;;;;1.90;1.80;;;;;;;22.23;64.23;96387.38;5011893;28;20202;-24
2023/10/25 03:49:14;;;;;;;1.77;1.67;;;;;;;22.24;64.32;96388.25;5011568;28;20205;-23
2023/10/25 03:51:40;;;;;;;1.83;1.73;;;;;;;22.22;64.47;96389.94;5010874;28;20591;-23
2023/10/25 03:54:07;;;;;;;1.80;1.70;;;;;;;22.22;64.46;96385.69;5012754;28;20305;-23
2023/10/25 03:56:34;;;;;;;1.90;1.80;;;;;;;22.22;64.55;96390.81;5011673;28;20276;-23
2023/10/25 03:59:00;;;;;;;1.80;1.70;;;;;;;22.23;64.49;96389.09;5014343;28;20194;-23
2023/10/25 04:01:27;;;;;;;1.80;1.70;;;;;;;22.22;64.35;96387.38;5010501;28;20261;-23
2023/10/25 04:03:53;;;;;;;1.90;1.80;;;;;;;22.22;64.49;96384.81;5011424;28;20634;-24
2023/10/25 04:06:20;;;;;;;1.60;1.50;;;;;;;22.23;64.39;96384.00;5011642;28;20206;-24
2023/10/25 04:08:47;;;;;;;1.70;1.60;;;;;;;22.24;64.25;96378.03;5011248;28;20242;-23
2023/10/25 04:11:13;;;;;;;3.00;1.97;;;;;;;22.23;64.23;96379.72;5010913;28;20214;-23
2023/10/25 04:13:40;;;;;;;1.87;1.77;;;;;;;22.24;64.19;96373.78;5011636;28;20276;-23
2023/10/25 04:16:07;;;;;;;1.90;1.80;;;;;;;22.21;64.19;96362.63;5003158;28;20234;-24
2023/10/25 04:18:34;;;;;;;1.93;1.83;;;;;;;22.26;64.51;96366.09;5011448;28;20202;-23
2023/10/25 04:21:01;;;;;;;1.73;1.63;;;;;;;22.26;63.96;96364.38;5010730;28;20225;-23
2023/10/25 04:23:29;;;;;;;1.80;1.70;;;;;;;22.27;64.09;96363.56;5011678;28;20202;-23
2023/10/25 04:26:09;;;;;;;1.70;1.60;;;;;;;22.28;64.03;96362.69;5016583;28;20194;-23
2023/10/25 04:28:38;;;;;;;1.70;1.60;;;;;;;22.28;63.97;96357.59;5015661;28;20205;-25
2023/10/25 04:31:06;;;;;;;2.97;1.50;;;;;;;22.28;64.11;96365.25;5013963;28;20219;-25
2023/10/25 04:33:33;;;;;;;1.80;1.70;;;;;;;22.28;64.32;96356.72;5009090;28;20209;-23
2023/10/25 04:36:00;;;;;;;1.73;1.63;;;;;;;22.27;64.01;96350.75;5012595;28;20206;-23
2023/10/25 04:38:26;;;;;;;1.60;1.50;;;;;;;22.27;64.05;96350.75;5010692;28;20207;-24
2023/10/25 04:40:53;;;;;;;1.97;1.77;;;;;;;22.27;63.94;96345.63;5010885;28;20272;-23
2023/10/25 04:43:20;;;;;;;1.77;1.67;;;;;;;22.27;62.72;96349.88;5011240;28;20214;-23
2023/10/25 04:45:46;;;;;;;3.10;1.83;;;;;;;22.25;60.87;96351.56;5011520;28;20300;-24
2023/10/25 04:48:13;;;;;;;13.17;2.10;;;;;;;22.24;59.32;96348.19;5011009;28;20198;-23
2023/10/25 04:50:40;;;;;;;4.17;2.23;;;;;;;22.24;58.41;96350.75;5008994;28;20333;-23
2023/10/25 04:53:06;;;;;;;2.43;2.23;;;;;;;22.20;57.79;96343.84;5011103;28;20293;-23
2023/10/25 04:55:34;;;;;;;3.63;2.50;;;;;;;22.19;57.11;96331.91;5010950;28;20585;-23
2023/10/25 04:58:00;;;;;;;3.93;2.23;;;;;;;22.22;56.84;96339.63;5011461;28;20677;-23
2023/10/25 05:00:27;;;;;;;2.93;2.30;;;;;;;22.21;56.17;96345.59;5019469;28;20227;-23
2023/10/25 05:02:54;;;;;;;2.60;2.40;;;;;;;22.21;55.94;96342.16;5008761;28;20218;-23
2023/10/25 05:05:21;;;;;;;8.83;2.93;;;;;;;22.20;55.77;96341.31;5014193;28;20198;-23
2023/10/25 05:07:48;;;;;;;5.33;2.80;;;;;;;22.20;55.43;96345.59;5014458;28;20198;-23
2023/10/25 05:10:15;;;;;;;4.03;2.63;;;;;;;22.20;55.40;96337.91;5014263;28;20202;-25
2023/10/25 05:12:45;;;;;;;2.83;2.63;;;;;;;22.20;55.77;96345.59;5014685;28;20610;-25
2023/10/25 05:15:15;;;;;;;2.97;2.73;;;;;;;22.18;56.87;96340.44;5013439;28;20210;-22
2023/10/25 05:17:43;;;;;;;3.63;2.80;;;;;;;22.18;56.83;96340.44;5014373;28;20206;-24
2023/10/25 05:20:10;;;;;;;2.47;2.27;;;;;;;22.17;56.96;96341.28;5014279;28;20225;-23
2023/10/25 05:22:38;;;;;;;3.20;2.90;;;;;;;22.17;57.19;96337.88;5012948;28;20299;-23
2023/10/25 05:25:06;;;;;;;3.00;2.70;;;;;;;22.17;57.76;96337.88;5014610;28;20684;-24
2023/10/25 05:27:33;;;;;;;2.90;2.70;;;;;;;22.17;58.08;96341.28;5013972;28;20293;-24
2023/10/25 05:30:03;;;;;;;2.80;2.60;;;;;;;22.16;58.40;96337.00;5014625;28;20240;-24
2023/10/25 05:32:36;;;;;;;2.40;2.20;;;;;;;22.16;58.71;96342.13;5013807;28;20661;-23
2023/10/25 05:35:05;;;;;;;2.63;2.30;;;;;;;22.17;58.75;96333.59;5013112;28;20582;-23
2023/10/25 05:37:32;;;;;;;2.70;2.50;;;;;;;22.19;58.97;96336.16;5015926;28;20285;-23
2023/10/25 05:39:59;;;;;;;2.23;2.03;;;;;;;22.18;59.34;96329.34;5015698;28;20573;-23
2023/10/25 05:42:26;;;;;;;2.03;1.93;;;;;;;22.18;59.30;96327.66;5030289;22;20246;-27
2023/10/25 05:44:56;;;;;;;2.03;1.90;;;;;;;22.20;59.60;96327.66;5013863;28;20218;-26
2023/10/25 05:47:23;;;;;;;3.40;2.10;;;;;;;22.20;59.56;96335.34;5006620;28;20260;-28
2023/10/25 05:49:50;;;;;;;2.10;2.00;;;;;;;22.21;59.79;96329.38;5014553;28;20202;-28
2023/10/25 05:52:16;;;;;;;3.93;2.27;;;;;;;22.21;59.71;96334.50;5017058;28;20226;-27
2023/10/25 05:54:44;;;;;;;1.83;1.73;;;;;;;22.20;59.83;96341.31;5027401;28;20778;-26
2023/10/25 05:57:12;;;;;;;2.90;2.30;;;;;;;22.19;59.77;96338.72;5027301;28;20215;-26
2023/10/25 05:59:40;;;;;;;2.20;2.00;;;;;;;22.19;60.09;96339.59;5029411;28;20213;-28
2023/10/25 06:02:11;;;;;;;2.50;2.30;;;;;;;22.17;58.43;96343.84;5027590;28;20719;-38
2023/10/25 06:04:39;;;;;;;3.37;2.63;;;;;;;22.16;57.97;96339.56;5007595;28;20293;-29
2023/10/25 06:07:07;;;;;;;2.23;2.00;;;;;;;22.17;58.28;96337.88;5011299;28;20206;-26
2023/10/25 06:09:34;;;;;;;2.33;2.13;;;;;;;22.16;58.92;96334.44;5015596;28;20588;-29
2023/10/25 06:12:01;;;;;;;3.40;2.07;;;;;;;22.16;59.08;96337.00;5013097;28;20693;-27
2023/10/25 06:14:27;;;;;;;3.97;2.60;;;;;;;22.10;59.16;96330.97;5016005;28;20632;-32
2023/10/25 06:16:54;;;;;;;2.30;2.10;;;;;;;22.16;59.29;96343.81;5013596;28;20271;-28
2023/10/25 06:19:21;;;;;;;2.60;2.13;;;;;;;22.17;59.57;96343.00;5011395;28;20761;-39
2023/10/25 06:21:48;;;;;;;1.87;1.77;;;;;;;22.16;59.62;96343.81;5013014;28;20571;-27
2023/10/25 06:24:14;;;;;;;2.17;2.07;;;;;;;22.16;59.83;96339.56;5014276;28;20205;-29
2023/10/25 06:26:41;;;;;;;3.13;1.90;;;;;;;22.17;59.84;96338.72;5015398;28;20210;-38
2023/10/25 06:29:08;;;;;;;1.80;1.70;;;;;;;22.18;60.08;96337.03;5017745;28;20268;-27
2023/10/25 06:31:35;;;;;;;11.63;2.10;;;;;;;22.14;59.56;96336.13;5017973;28;20888;-28
2023/10/25 06:34:01;;;;;;;2.50;2.27;;;;;;;22.10;59.55;96326.72;5014862;28;20206;-34
2023/10/25 06:36:30;;;;;;;2.13;1.93;;;;;;;22.17;59.73;96340.44;5016650;28;20297;-31
2023/10/25 06:38:57;;;;;;;2.60;2.07;;;;;;;22.16;59.58;96339.56;5015046;28;20202;-26
2023/10/25 06:41:24;;;;;;;3.17;1.90;;;;;;;22.07;59.50;96313.03;5012619;28;20256;-29
2023/10/25 06:43:51;;;;;;;2.13;1.73;;;;;;;22.15;60.02;96334.44;5017123;28;20212;-26
2023/10/25 06:46:18;;;;;;;2.70;1.77;;;;;;;22.16;60.08;96334.44;5020194;28;20275;-31
2023/10/25 06:48:45;;;;;;;2.83;2.00;;;;;;;22.17;60.11;96333.59;5025537;28;20755;-27
2023/10/25 06:51:12;;;;;;;1.90;1.80;;;;;;;22.16;60.26;96326.78;5028405;28;20202;-34
2023/10/25 06:53:39;;;;;;;3.23;1.70;;;;;;;22.16;60.38;96325.91;5028779;28;20674;-29
2023/10/25 06:56:06;;;;;;;1.87;1.77;;;;;;;22.17;60.33;96314.84;5028909;28;20202;-31
2023/10/25 06:58:33;;;;;;;3.10;1.80;;;;;;;22.17;60.30;96317.41;5028647;28;20248;-29
2023/10/25 07:00:59;;;;;;;2.10;1.70;;;;;;;22.16;60.43;96316.53;5030145;28;20304;-26
2023/10/25 07:03:35;;;;;;;1.83;1.60;;;;;;;22.18;60.34;96314.00;5012011;28;20512;-29
2023/10/25 07:06:03;;;;;;;1.70;1.60;;;;;;;22.18;60.57;96306.31;5026972;28;20198;-27
2023/10/25 07:08:30;;;;;;;1.70;1.60;;;;;;;22.18;60.59;96314.84;5030109;28;20289;-26
2023/10/25 07:10:58;;;;;;;2.67;1.73;;;;;;;22.18;60.58;96309.75;5018312;28;20673;-33
2023/10/25 07:13:26;;;;;;;2.00;1.90;;;;;;;22.18;60.62;96308.88;5025605;28;20921;-29
2023/10/25 07:15:54;;;;;;;2.43;1.80;;;;;;;22.18;60.58;96311.44;5013066;28;20601;-28
2023/10/25 07:18:21;;;;;;;2.27;2.03;;;;;;;22.18;60.78;96314.00;5019754;28;20212;-29
2023/10/25 07:20:47;;;;;;;1.60;1.50;;;;;;;22.17;60.68;96304.63;5013782;28;20229;-31
2023/10/25 07:23:14;;;;;;;1.50;1.40;;;;;;;22.17;60.61;96305.44;5015163;28;20229;-30
2023/10/25 07:25:40;;;;;;;2.07;1.60;;;;;;;22.17;60.62;96295.22;5014805;28;20205;-27
2023/10/25 07:28:07;;;;;;;1.70;1.60;;;;;;;22.17;60.58;96286.69;5011203;28;20300;-32
2023/10/25 07:30:34;;;;;;;2.50;1.70;;;;;;;22.18;60.70;96288.41;5016060;28;20244;-27
2023/10/25 07:33:01;;;;;;;1.70;1.60;;;;;;;22.17;60.74;96282.41;5011003;28;20656;-29
2023/10/25 07:35:27;;;;;;;1.60;1.40;;;;;;;22.17;60.87;96281.59;5013196;28;20237;-27
2023/10/25 07:37:54;;;;;;;1.90;1.40;;;;;;;22.17;60.91;96273.91;5013580;28;20210;-32
2023/10/25 07:40:21;;;;;;;1.80;1.60;;;;;;;22.17;60.89;96273.91;5013483;28;20724;-30
2023/10/25 07:42:47;;;;;;;1.67;1.57;;;;;;;22.17;60.87;96272.19;5010310;28;20252;-36
2023/10/25 07:45:14;;;;;;;1.80;1.70;;;;;;;22.19;60.90;96282.44;5012651;28;20677;-32
2023/10/25 07:47:40;;;;;;;1.60;1.50;;;;;;;22.19;60.82;96282.44;5010966;28;20780;-26
2023/10/25 07:50:07;;;;;;;1.53;1.43;;;;;;;22.20;60.43;96281.59;5013921;28;20209;-27
2023/10/25 07:52:34;;;;;;;3.03;1.60;;;;;;;22.18;58.85;96273.91;5012885;28;20221;-35
2023/10/25 07:55:03;;;;;;;1.60;1.50;;;;;;;22.19;59.46;96283.28;5013948;28;20209;-27
2023/10/25 07:57:49;;;;;;;2.27;1.70;;;;;;;22.20;59.88;96286.72;5019193;28;20683;-31
2023/10/25 08:00:36;;;;;;;1.63;1.40;;;;;;;22.16;60.00;96275.59;5014893;28;20209;-27
2023/10/25 08:03:03;;;;;;;1.83;1.73;;;;;;;22.19;60.13;96280.75;5023847;28;20234;-27
2023/10/25 08:05:30;;;;;;;1.47;1.37;;;;;;;22.19;60.31;96277.31;5020266;28;20201;-30
2023/10/25 08:07:57;;;;;;;1.60;1.50;;;;;;;22.20;60.48;96284.16;5025728;28;20205;-32
2023/10/25 08:10:24;;;;;;;2.37;1.50;;;;;;;22.20;60.46;96273.94;5028002;28;20202;-26
2023/10/25 08:12:51;;;;;;;1.60;1.50;;;;;;;22.20;60.46;96269.66;5013848;28;20958;-28
2023/10/25 08:15:17;;;;;;;2.03;1.63;;;;;;;22.21;60.58;96267.94;5026346;28;20207;-34
2023/10/25 08:17:44;;;;;;;1.90;1.40;;;;;;;22.21;60.65;96265.41;5021337;28;20201;-26
2023/10/25 08:20:11;;;;;;;1.63;1.53;;;;;;;22.22;60.60;96265.41;5024863;28;20230;-32
2023/10/25 08:22:39;;;;;;;1.60;1.50;;;;;;;22.21;60.74;96253.47;5013155;28;20346;-26
2023/10/25 08:25:08;;;;;;;3.03;1.33;;;;;;;22.24;60.77;96258.59;5014640;28;20319;-27
2023/10/25 08:27:36;;;;;;;1.60;1.50;;;;;;;22.24;60.86;96253.50;5012445;28;20683;-29
2023/10/25 08:30:03;;;;;;;1.50;1.40;;;;;;;22.24;60.86;96257.75;5015937;28;20213;-38
2023/10/25 08:32:30;;;;;;;5.73;1.40;;;;;;;22.23;60.82;96262.00;5014086;28;20678;-31
2023/10/25 08:34:56;;;;;;;1.43;1.33;;;;;;;22.24;60.77;96252.63;5012927;28;20202;-27
2023/10/25 08:37:23;;;;;;;3.90;1.30;;;;;;;22.23;60.86;96254.31;5020004;28;20224;-27
2023/10/25 08:39:49;;;;;;;4.23;1.77;;;;;;;22.22;60.40;96250.06;5017581;28;20472;-33
2023/10/25 08:42:16;;;;;;;2.30;1.80;;;;;;;22.18;59.78;96243.22;5014833;28;20234;-27
2023/10/25 08:44:43;;;;;;;3.37;1.93;;;;;;;22.22;59.58;96250.06;5015286;28;20234;-30
2023/10/25 08:47:11;;;;;;;2.80;2.00;;;;;;;22.22;59.31;96247.50;5014574;28;20592;-35
2023/10/25 08:49:38;;;;;;;2.37;2.00;;;;;;;22.21;59.45;96240.69;5018581;28;20209;-29
2023/10/25 08:52:06;;;;;;;2.83;2.20;;;;;;;22.23;59.39;96241.53;5014211;28;20228;-28
2023/10/25 08:54:34;;;;;;;2.93;2.33;;;;;;;22.23;59.48;96238.13;5016844;28;20205;-36
2023/10/25 08:57:02;;;;;;;2.87;2.17;;;;;;;22.23;59.24;96238.13;5018208;28;20746;-28
2023/10/25 08:59:29;;;;;;;2.03;1.93;;;;;;;22.24;59.42;96245.81;5016617;28;20213;-28
2023/10/25 09:01:55;;;;;;;2.33;2.13;;;;;;;22.21;59.75;96227.88;5015398;28;20248;-32
2023/10/25 09:04:22;;;;;;;2.47;2.10;;;;;;;22.26;59.65;96227.91;5000936;28;20231;-39
2023/10/25 09:06:49;;;;;;;3.17;2.23;;;;;;;22.26;59.69;96231.28;5014513;28;20206;-30
2023/10/25 09:09:16;;;;;;;2.20;2.00;;;;;;;22.26;59.74;96226.19;5017331;28;20206;-31
2023/10/25 09:11:44;;;;;;;3.70;2.60;;;;;;;22.25;60.02;96219.34;5011886;28;20222;-37
2023/10/25 09:14:11;;;;;;;2.53;2.33;;;;;;;22.26;59.96;96218.50;5015988;28;20211;-34
2023/10/25 09:16:42;;;;;;;4.67;2.30;;;;;;;22.26;60.15;96222.78;5015235;28;20224;-26
2023/10/25 09:19:09;;;;;;;5.83;2.57;;;;;;;22.25;60.17;96214.25;5018464;28;20284;-27
2023/10/25 09:21:36;;;;;;;4.93;2.70;;;;;;;22.25;59.15;96219.34;5020266;28;20229;-27
2023/10/25 09:24:07;;;;;;;4.03;2.67;;;;;;;22.04;58.64;96178.28;5017352;28;20322;-26
2023/10/25 09:26:35;;;;;;;4.30;2.90;;;;;;;22.24;58.74;96214.22;5015911;28;20579;-37
2023/10/25 09:29:02;;;;;;;4.90;3.10;;;;;;;22.26;59.10;96212.56;5015912;28;20206;-33
2023/10/25 09:31:30;;;;;;;5.03;2.70;;;;;;;22.28;59.34;96203.16;5017460;28;20230;-38
2023/10/25 09:33:57;;;;;;;5.77;2.90;;;;;;;22.29;59.79;96210.00;5015318;28;20214;-27
2023/10/25 09:36:24;;;;;;;3.13;2.63;;;;;;;22.29;59.68;96195.47;5018146;28;20482;-35
2023/10/25 09:38:51;;;;;;;4.03;2.73;;;;;;;22.30;59.71;96193.78;5015407;28;20214;-34
2023/10/25 09:41:18;;;;;;;3.70;2.37;;;;;;;22.29;59.82;96192.94;5015088;28;20237;-28
2023/10/25 09:43:52;;;;;;;4.03;2.50;;;;;;;22.31;59.87;96193.81;4999560;28;20231;-35
2023/10/25 09:46:20;;;;;;;4.27;2.60;;;;;;;22.31;59.90;96198.06;5018026;28;20620;-26
2023/10/25 09:49:03;;;;;;;3.00;2.30;;;;;;;22.33;60.03;96192.13;5030225;28;20304;-28
2023/10/25 09:51:51;;;;;;;4.33;2.40;;;;;;;22.33;60.15;96184.44;5027504;28;20291;-26
2023/10/25 09:54:23;;;;;;;3.30;2.30;;;;;;;22.32;60.17;96177.59;5028622;28;20648;-29
2023/10/25 09:56:50;;;;;;;3.73;2.47;;;;;;;22.31;60.19;96173.31;5029441;28;20233;-28
2023/10/25 09:59:16;;;;;;;2.80;2.20;;;;;;;22.29;60.31;96163.94;5013065;28;20645;-27
2023/10/25 10:01:43;;;;;;;2.40;2.20;;;;;;;22.32;60.47;96156.28;5015393;28;20315;-30
2023/10/25 10:04:36;;;;;;;4.07;2.47;;;;;;;22.32;60.51;96151.16;5017118;28;20206;-27
2023/10/25 10:07:24;;;;;;;5.33;2.50;;;;;;;22.29;60.55;96146.84;5039143;28;20240;-35
2023/10/25 10:09:54;;;;;;;4.10;2.30;;;;;;;22.31;60.54;96146.88;5024088;28;20217;-26
2023/10/25 10:12:20;;;;;;;3.30;2.10;;;;;;;22.32;60.48;96146.03;5027446;28;20218;-28
2023/10/25 10:14:47;;;;;;;2.27;2.07;;;;;;;22.32;60.60;96152.00;5020515;28;20692;-26
2023/10/25 10:17:15;;;;;;;2.77;2.00;;;;;;;22.33;60.59;96150.31;5024038;28;20593;-30
2023/10/25 10:19:42;;;;;;;3.47;2.10;;;;;;;22.33;60.51;96150.31;5022074;28;20198;-35
2023/10/25 10:22:16;;;;;;;3.80;2.13;;;;;;;22.32;60.52;96141.75;5019625;28;20709;-26
2023/10/25 10:24:44;;;;;;;2.40;1.90;;;;;;;22.33;60.83;96142.63;5025880;28;20206;-26
2023/10/25 10:27:18;;;;;;;3.13;1.83;;;;;;;22.33;60.86;96140.06;5026404;28;20304;-30
2023/10/25 10:29:46;;;;;;;3.03;2.27;;;;;;;22.33;60.78;96128.13;5029070;28;20263;-27
2023/10/25 10:32:13;;;;;;;2.77;1.87;;;;;;;22.33;60.80;96127.25;5029197;28;20222;-26
2023/10/25 10:34:54;;;;;;;2.40;1.80;;;;;;;22.33;60.53;96122.16;5021273;28;20236;-26
2023/10/25 10:37:24;;;;;;;2.90;2.33;;;;;;;22.32;60.26;96116.16;5021508;28;20257;-26
2023/10/25 10:39:56;;;;;;;4.13;2.10;;;;;;;22.31;60.29;96108.47;5018928;28;20216;-29
2023/10/25 10:42:28;;;;;;;3.33;1.90;;;;;;;22.29;60.20;96095.69;5024622;28;20233;-30
2023/10/25 10:44:55;;;;;;;3.93;2.10;;;;;;;22.28;60.21;96080.31;5024480;28;20244;-29
2023/10/25 10:47:28;;;;;;;4.60;1.97;;;;;;;22.30;60.22;96076.06;5008302;28;20206;-30
2023/10/25 10:49:57;;;;;;;2.93;2.20;;;;;;;22.29;60.47;96075.19;5026709;28;20651;-29
2023/10/25 10:52:24;;;;;;;3.07;2.00;;;;;;;22.31;60.33;96070.09;5029769;28;20248;-28
2023/10/25 10:54:50;;;;;;;3.67;1.83;;;;;;;22.30;60.21;96068.38;5030240;28;20237;-35
2023/10/25 10:57:17;;;;;;;3.43;2.30;;;;;;;22.28;59.82;96060.72;5030658;28;20234;-26
2023/10/25 10:59:47;;;;;;;8.93;2.00;;;;;;;22.27;59.81;96053.03;4993965;28;20228;-30
2023/10/25 11:02:14;;;;;;;2.73;2.00;;;;;;;22.30;59.72;96060.72;5027401;28;20297;-26
2023/10/25 11:04:43;;;;;;;8.00;2.13;;;;;;;22.31;60.04;96063.28;5022817;28;20263;-30
2023/10/25 11:07:11;;;;;;;4.23;2.07;;;;;;;22.32;60.07;96059.03;5026335;28;20202;-26
2023/10/25 11:09:37;;;;;;;2.67;2.07;;;;;;;22.31;60.05;96045.34;5025601;28;20205;-27
2023/10/25 11:12:09;;;;;;;5.40;2.10;;;;;;;22.29;60.08;96039.38;5026213;28;20220;-27
2023/10/25 11:14:43;;;;;;;4.67;1.90;;;;;;;22.31;60.07;96029.13;5021243;28;20284;-28
2023/10/25 11:17:10;;;;;;;2.27;1.73;;;;;;;22.30;60.27;96030.88;5026907;28;20243;-31
2023/10/25 11:19:37;;;;;;;3.93;2.30;;;;;;;22.31;60.28;96021.47;5022002;28;20676;-26
2023/10/25 11:22:03;;;;;;;2.93;1.80;;;;;;;22.30;60.36;96015.50;5014456;28;20357;-27
2023/10/25 11:24:30;;;;;;;5.27;1.70;;;;;;;22.31;60.33;96013.78;5023796;28;20263;-28
2023/10/25 11:26:57;;;;;;;3.97;1.90;;;;;;;22.30;60.29;96007.84;5027413;28;20630;-26
2023/10/25 11:29:24;;;;;;;2.70;1.70;;;;;;;22.30;60.23;96001.84;5020432;28;20201;-32
2023/10/25 11:31:51;;;;;;;1.70;1.30;;;;;;;22.32;60.31;95997.59;5027053;28;20226;-28
2023/10/25 11:34:20;;;;;;;6.50;2.00;;;;;;;22.30;60.40;95995.03;5025930;28;20229;-26
2023/10/25 11:36:49;;;;;;;2.03;1.50;;;;;;;22.25;60.51;95994.16;5021396;28;20205;-27